Time;durP1;ratioP1;P1;durP2;ratioP2;P2;SDS_P1;SDS_P2;PMS_P1;PMS_P2;Temp;Humidity;BMP_temperature;BMP_pressure;BME280_temperature;BME280_humidity;BME280_pressure;Samples;Min_cycle;Max_cycle;Signal;HPM_P1;HPM_P2
2023/02/03 00:01:10;;;;;;;6.43;4.20;;;9.30;99.90;;;;;;5022903;28;20671;-65
2023/02/03 00:03:39;;;;;;;10.87;4.10;;;9.30;99.90;;;;;;5030012;28;20674;-65
2023/02/03 00:06:08;;;;;;;16.53;4.73;;;9.30;99.90;;;;;;5027226;28;20182;-65
2023/02/03 00:08:38;;;;;;;14.57;4.20;;;9.20;99.90;;;;;;5025725;28;20229;-65
2023/02/03 00:11:06;;;;;;;19.00;5.10;;;9.20;99.90;;;;;;5023925;28;20656;-65
2023/02/03 00:13:35;;;;;;;9.03;4.20;;;9.20;99.90;;;;;;5027217;28;20304;-65
2023/02/03 00:16:06;;;;;;;15.57;4.47;;;9.20;99.90;;;;;;5041325;28;20196;-65
2023/02/03 00:18:34;;;;;;;15.57;4.40;;;9.20;99.90;;;;;;5059634;28;20190;-65
2023/02/03 00:21:03;;;;;;;13.73;4.23;;;9.30;99.90;;;;;;5026387;28;20199;-65
2023/02/03 00:23:32;;;;;;;13.10;3.83;;;9.30;99.90;;;;;;5022859;28;20224;-65
2023/02/03 00:26:07;;;;;;;12.63;3.50;;;9.20;99.90;;;;;;5028044;28;20196;-65
2023/02/03 00:28:35;;;;;;;11.10;3.83;;;9.20;99.90;;;;;;5028050;28;20205;-65
2023/02/03 00:31:05;;;;;;;11.83;3.40;;;9.20;99.90;;;;;;5029330;28;20670;-65
2023/02/03 00:33:34;;;;;;;11.90;3.67;;;9.30;99.90;;;;;;5037220;28;20200;-65
2023/02/03 00:36:05;;;;;;;12.40;3.80;;;9.20;99.90;;;;;;5029183;28;20198;-64
2023/02/03 00:38:34;;;;;;;17.70;3.97;;;9.30;99.90;;;;;;5029901;28;20221;-65
2023/02/03 00:41:02;;;;;;;11.87;3.60;;;9.30;99.90;;;;;;5030342;28;20535;-65
2023/02/03 00:43:30;;;;;;;12.07;3.90;;;9.30;99.90;;;;;;5029551;28;20201;-64
2023/02/03 00:45:59;;;;;;;18.03;3.60;;;9.30;99.90;;;;;;5045955;28;20552;-65
2023/02/03 00:48:29;;;;;;;12.90;3.33;;;9.30;99.90;;;;;;5028806;28;20201;-65
2023/02/03 00:50:58;;;;;;;10.70;3.20;;;9.40;99.90;;;;;;5036133;28;20217;-65
2023/02/03 00:53:26;;;;;;;9.53;3.03;;;9.30;99.90;;;;;;5031193;28;20288;-65
2023/02/03 00:55:54;;;;;;;11.03;3.30;;;9.40;99.90;;;;;;5065261;28;20197;-64
2023/02/03 00:58:23;;;;;;;10.83;3.40;;;9.40;99.90;;;;;;5028700;28;20205;-65
2023/02/03 01:00:51;;;;;;;9.77;2.93;;;9.40;99.90;;;;;;5031417;28;20190;-65
2023/02/03 01:03:19;;;;;;;8.77;3.33;;;9.40;99.90;;;;;;5033559;28;20711;-65
2023/02/03 01:05:49;;;;;;;8.90;3.27;;;9.40;99.90;;;;;;5047625;28;20559;-65
2023/02/03 01:08:18;;;;;;;9.13;3.30;;;9.30;99.90;;;;;;5032510;28;20229;-64
2023/02/03 01:10:46;;;;;;;11.87;2.80;;;9.40;99.90;;;;;;5032883;28;20267;-65
2023/02/03 01:13:14;;;;;;;13.03;3.17;;;9.40;99.90;;;;;;5028791;28;20233;-65
2023/02/03 01:15:47;;;;;;;9.93;2.67;;;9.40;99.90;;;;;;5029931;28;20202;-65
2023/02/03 01:18:15;;;;;;;9.27;3.00;;;9.40;99.90;;;;;;5034982;28;20627;-65
2023/02/03 01:20:43;;;;;;;10.83;3.47;;;9.40;99.90;;;;;;5036179;28;20204;-64
2023/02/03 01:23:13;;;;;;;8.03;2.67;;;9.40;99.90;;;;;;5032530;28;20551;-65
2023/02/03 01:25:42;;;;;;;12.10;3.10;;;9.30;99.90;;;;;;5032621;28;20202;-65
2023/02/03 01:28:10;;;;;;;12.00;3.10;;;9.40;99.90;;;;;;5032719;28;20190;-64
2023/02/03 01:30:38;;;;;;;10.80;3.00;;;9.40;99.90;;;;;;5032148;28;20639;-65
2023/02/03 01:33:07;;;;;;;10.60;2.67;;;9.40;99.90;;;;;;5046644;28;20189;-65
2023/02/03 01:35:36;;;;;;;15.40;2.93;;;9.40;99.90;;;;;;5023315;28;20205;-65
2023/02/03 01:38:04;;;;;;;8.87;3.20;;;9.30;99.90;;;;;;5040785;28;20194;-65
2023/02/03 01:40:34;;;;;;;10.97;3.07;;;9.30;99.90;;;;;;5017801;28;20208;-65
2023/02/03 01:43:02;;;;;;;13.50;3.13;;;9.30;99.90;;;;;;5030287;28;20206;-65
2023/02/03 01:45:30;;;;;;;10.07;2.97;;;9.30;99.90;;;;;;5030968;28;20197;-65
2023/02/03 01:47:59;;;;;;;9.90;3.20;;;9.30;99.90;;;;;;5063508;28;20201;-65
2023/02/03 01:50:32;;;;;;;8.07;2.60;;;9.40;99.90;;;;;;5031945;28;20219;-65
2023/02/03 01:53:05;;;;;;;10.87;2.97;;;9.40;99.90;;;;;;5029771;28;20193;-65
2023/02/03 01:55:37;;;;;;;9.40;2.90;;;9.30;99.90;;;;;;5063521;28;20555;-65
2023/02/03 01:58:11;;;;;;;11.80;2.90;;;9.30;99.90;;;;;;5028287;28;20197;-65
2023/02/03 02:00:40;;;;;;;14.77;3.20;;;9.30;99.90;;;;;;5031175;28;20186;-65
2023/02/03 02:03:09;;;;;;;9.93;2.77;;;9.30;99.90;;;;;;5033867;28;20824;-65
2023/02/03 02:05:43;;;;;;;8.93;2.80;;;9.30;99.90;;;;;;5038060;28;20642;-65
2023/02/03 02:08:13;;;;;;;7.17;2.67;;;9.30;99.90;;;;;;5035945;28;20237;-65
2023/02/03 02:10:43;;;;;;;10.60;2.70;;;9.30;99.90;;;;;;5039705;28;20675;-65
2023/02/03 02:13:12;;;;;;;8.10;2.77;;;9.30;99.90;;;;;;5031694;28;20224;-65
2023/02/03 02:15:50;;;;;;;8.57;2.50;;;9.30;99.90;;;;;;5035690;28;20293;-65
2023/02/03 02:18:28;;;;;;;8.27;2.87;;;9.30;99.90;;;;;;5026217;28;20263;-65
2023/02/03 02:21:22;;;;;;;6.13;2.30;;;9.30;99.90;;;;;;5029853;28;20185;-65
2023/02/03 02:24:27;;;;;;;9.37;2.60;;;9.30;99.90;;;;;;5031987;28;20200;-65
2023/02/03 02:27:05;;;;;;;13.37;2.80;;;9.30;99.90;;;;;;5034047;28;20208;-65
2023/02/03 02:30:10;;;;;;;7.10;2.47;;;9.30;99.90;;;;;;5026342;28;20220;-65
2023/02/03 02:32:48;;;;;;;8.43;2.60;;;9.30;99.90;;;;;;5033764;28;20679;-65
2023/02/03 02:35:27;;;;;;;10.60;2.50;;;9.40;99.90;;;;;;5029619;28;20197;-65
2023/02/03 02:38:02;;;;;;;6.30;2.47;;;9.40;99.90;;;;;;5044255;28;20200;-65
2023/02/03 02:40:36;;;;;;;8.13;2.13;;;9.40;99.90;;;;;;5035850;28;20193;-65
2023/02/03 02:43:10;;;;;;;9.57;2.40;;;9.40;99.90;;;;;;5022968;28;20201;-65
2023/02/03 02:45:48;;;;;;;10.20;2.37;;;9.40;99.90;;;;;;5030409;28;20199;-65
2023/02/03 02:48:23;;;;;;;14.93;3.10;;;9.50;99.90;;;;;;5030891;28;20200;-65
2023/02/03 02:50:55;;;;;;;9.00;2.50;;;9.50;99.90;;;;;;5035043;28;20219;-65
2023/02/03 02:53:26;;;;;;;4.73;2.37;;;9.40;99.90;;;;;;5026730;28;20197;-65
2023/02/03 02:55:57;;;;;;;4.30;2.17;;;9.40;99.90;;;;;;5038545;28;20616;-65
2023/02/03 02:58:27;;;;;;;6.73;2.63;;;9.40;99.90;;;;;;5028909;28;20217;-65
2023/02/03 03:00:56;;;;;;;7.47;2.40;;;9.40;99.90;;;;;;5037089;28;20194;-65
2023/02/03 03:03:25;;;;;;;7.37;2.70;;;9.50;99.90;;;;;;5018928;28;20532;-65
2023/02/03 03:05:57;;;;;;;7.83;2.20;;;9.40;99.90;;;;;;5028055;28;20194;-64
2023/02/03 03:08:31;;;;;;;9.20;3.00;;;9.40;99.90;;;;;;5030050;28;20244;-64
2023/02/03 03:11:02;;;;;;;9.53;2.50;;;9.40;99.90;;;;;;5059166;28;20233;-64
2023/02/03 03:13:34;;;;;;;11.43;3.00;;;9.40;99.90;;;;;;5022932;28;20221;-65
2023/02/03 03:16:06;;;;;;;15.80;2.57;;;9.40;99.90;;;;;;5023093;28;20539;-64
2023/02/03 03:18:42;;;;;;;9.90;2.27;;;9.40;99.90;;;;;;5032504;28;20200;-65
2023/02/03 03:21:16;;;;;;;7.20;2.60;;;9.40;99.90;;;;;;5043012;28;20197;-64
2023/02/03 03:23:48;;;;;;;10.00;2.37;;;9.40;99.90;;;;;;5022352;28;20197;-65
2023/02/03 03:26:23;;;;;;;11.73;2.67;;;9.40;99.90;;;;;;5035070;28;20189;-64
2023/02/03 03:28:54;;;;;;;5.60;2.30;;;9.40;99.90;;;;;;5030216;28;20193;-65
2023/02/03 03:31:22;;;;;;;5.80;2.10;;;9.30;99.90;;;;;;5065830;28;20675;-64
2023/02/03 03:33:52;;;;;;;11.43;2.50;;;9.30;99.90;;;;;;5028743;28;20193;-65
2023/02/03 03:36:25;;;;;;;9.07;2.50;;;9.30;99.90;;;;;;5028774;28;20198;-65
2023/02/03 03:39:02;;;;;;;6.00;2.20;;;9.30;99.90;;;;;;5062312;28;20181;-65
2023/02/03 03:41:39;;;;;;;4.77;2.20;;;9.40;99.90;;;;;;5030448;28;20193;-65
2023/02/03 03:44:15;;;;;;;10.20;2.23;;;9.40;99.90;;;;;;5030068;28;20225;-65
2023/02/03 03:46:49;;;;;;;3.90;2.37;;;9.30;99.90;;;;;;5045150;28;20200;-64
2023/02/03 03:49:21;;;;;;;4.77;2.07;;;9.30;99.90;;;;;;5029327;28;20203;-65
2023/02/03 03:51:53;;;;;;;8.37;2.40;;;9.30;99.90;;;;;;5030749;28;20693;-65
2023/02/03 03:54:24;;;;;;;5.40;2.07;;;9.30;99.90;;;;;;5029390;28;20284;-65
2023/02/03 03:56:59;;;;;;;6.17;2.07;;;9.30;99.90;;;;;;5031141;28;20239;-65
2023/02/03 03:59:31;;;;;;;4.70;2.10;;;9.30;99.90;;;;;;5044772;28;20197;-65
2023/02/03 04:02:03;;;;;;;5.17;2.10;;;9.30;99.90;;;;;;5030976;28;20243;-65
2023/02/03 04:04:36;;;;;;;4.50;1.97;;;9.30;99.90;;;;;;5024903;28;20194;-65
2023/02/03 04:07:04;;;;;;;7.00;2.00;;;9.30;99.90;;;;;;5027228;28;20487;-65
2023/02/03 04:09:35;;;;;;;7.33;2.10;;;9.30;99.90;;;;;;5022783;28;20257;-65
2023/02/03 04:12:05;;;;;;;7.13;2.30;;;9.40;99.90;;;;;;5024447;28;20214;-65
2023/02/03 04:14:37;;;;;;;4.33;1.87;;;9.30;99.90;;;;;;5035794;28;20189;-65
2023/02/03 04:17:06;;;;;;;5.33;2.00;;;9.30;99.90;;;;;;5033208;28;20197;-65
2023/02/03 04:19:36;;;;;;;10.10;2.27;;;9.30;99.90;;;;;;5032534;28;20632;-65
2023/02/03 04:22:04;;;;;;;6.93;1.87;;;9.30;99.90;;;;;;5032852;28;20280;-65
2023/02/03 04:24:32;;;;;;;7.00;2.43;;;9.30;99.90;;;;;;5025089;28;20201;-65
2023/02/03 04:27:01;;;;;;;7.20;2.20;;;9.30;99.90;;;;;;5032819;28;20197;-65
2023/02/03 04:29:32;;;;;;;6.70;1.97;;;9.30;99.90;;;;;;5030851;28;20197;-65
2023/02/03 04:32:00;;;;;;;5.23;1.80;;;9.40;99.90;;;;;;5028995;28;20694;-64
2023/02/03 04:34:29;;;;;;;3.73;2.00;;;9.40;99.90;;;;;;5030438;28;20221;-65
2023/02/03 04:36:59;;;;;;;2.63;2.00;;;9.40;99.90;;;;;;5030714;28;20272;-64
2023/02/03 04:39:27;;;;;;;2.93;2.00;;;9.40;99.90;;;;;;5032607;28;20205;-65
2023/02/03 04:41:56;;;;;;;4.27;2.00;;;9.40;99.90;;;;;;5032468;28;20198;-65
2023/02/03 04:44:24;;;;;;;4.20;1.93;;;9.40;99.90;;;;;;5032220;28;20202;-65
2023/02/03 04:46:52;;;;;;;2.63;1.80;;;9.50;99.90;;;;;;5033754;28;20197;-65
2023/02/03 04:49:20;;;;;;;5.10;1.70;;;9.40;99.90;;;;;;5033419;28;20199;-65
2023/02/03 04:51:49;;;;;;;5.27;2.10;;;9.40;99.90;;;;;;5048842;28;20213;-64
2023/02/03 04:54:18;;;;;;;7.33;2.10;;;9.40;99.90;;;;;;5032379;28;20202;-65
2023/02/03 04:56:47;;;;;;;7.73;2.83;;;9.40;99.90;;;;;;5033657;28;20189;-65
2023/02/03 04:59:15;;;;;;;4.07;1.87;;;9.40;99.90;;;;;;5031928;28;20217;-65
2023/02/03 05:01:45;;;;;;;5.00;2.10;;;9.30;99.90;;;;;;5029150;28;20280;-65
2023/02/03 05:04:14;;;;;;;6.00;2.33;;;9.30;99.90;;;;;;5046542;28;20190;-65
2023/02/03 05:06:42;;;;;;;4.67;1.90;;;9.30;99.90;;;;;;5065534;28;20209;-65
2023/02/03 05:09:11;;;;;;;5.77;2.10;;;9.30;99.90;;;;;;5032931;28;20599;-64
2023/02/03 05:11:41;;;;;;;8.43;2.20;;;9.30;99.90;;;;;;5031856;28;20232;-65
2023/02/03 05:14:09;;;;;;;4.97;1.93;;;9.30;99.90;;;;;;5029219;28;20204;-65
2023/02/03 05:16:37;;;;;;;6.13;2.00;;;9.40;99.90;;;;;;5030657;28;20189;-64
2023/02/03 05:19:06;;;;;;;2.27;1.90;;;9.40;99.90;;;;;;5033173;28;20197;-65
2023/02/03 05:21:34;;;;;;;5.53;2.10;;;9.40;99.90;;;;;;5036178;28;20659;-64
2023/02/03 05:24:05;;;;;;;8.73;2.03;;;9.40;99.90;;;;;;5038380;28;20259;-64
2023/02/03 05:26:34;;;;;;;5.37;2.07;;;9.40;99.90;;;;;;5031052;28;20213;-65
2023/02/03 05:29:04;;;;;;;5.40;1.87;;;9.50;99.90;;;;;;5047760;28;20205;-65
2023/02/03 05:31:33;;;;;;;5.23;2.00;;;9.40;99.90;;;;;;5032455;28;20655;-65
2023/02/03 05:34:02;;;;;;;8.37;2.00;;;9.40;99.90;;;;;;5031390;28;20197;-64
2023/02/03 05:36:30;;;;;;;2.20;1.90;;;9.40;99.90;;;;;;5030310;28;21104;-65
2023/02/03 05:38:58;;;;;;;5.13;2.23;;;9.40;99.90;;;;;;5030982;28;20636;-65
2023/02/03 05:44:14;;;;;;;5.70;2.03;;;9.40;99.90;;;;;;5026399;28;20643;-65
2023/02/03 05:46:42;;;;;;;4.63;1.93;;;9.40;99.90;;;;;;5032145;28;20201;-65
2023/02/03 05:49:10;;;;;;;6.80;2.23;;;9.50;99.90;;;;;;5025354;28;20213;-65
2023/02/03 05:51:39;;;;;;;8.07;2.17;;;9.50;99.90;;;;;;5034547;28;20212;-65
2023/02/03 05:54:08;;;;;;;3.90;2.00;;;9.50;99.90;;;;;;5034360;28;20197;-65
2023/02/03 05:56:37;;;;;;;6.73;2.30;;;9.50;99.90;;;;;;5028746;28;20190;-65
2023/02/03 05:59:06;;;;;;;5.27;3.30;;;9.50;99.90;;;;;;5029033;28;20208;-65
2023/02/03 06:01:36;;;;;;;3.83;3.23;;;9.50;99.90;;;;;;5034088;28;20198;-65
2023/02/03 06:04:04;;;;;;;8.70;3.07;;;9.50;99.90;;;;;;5036560;28;20205;-65
2023/02/03 06:06:33;;;;;;;3.97;2.20;;;9.40;99.90;;;;;;5033837;28;20201;-64
2023/02/03 06:09:04;;;;;;;3.63;2.30;;;9.40;99.90;;;;;;5032150;28;20229;-64
2023/02/03 06:11:33;;;;;;;5.33;2.40;;;9.40;99.90;;;;;;5029753;28;20221;-65
2023/02/03 06:14:01;;;;;;;4.13;1.90;;;9.40;99.90;;;;;;5026698;28;20533;-65
2023/02/03 06:16:29;;;;;;;3.67;2.30;;;9.40;99.90;;;;;;5027653;28;20834;-65
2023/02/03 06:19:00;;;;;;;2.90;1.60;;;9.50;99.90;;;;;;5046178;28;20200;-65
2023/02/03 06:21:29;;;;;;;3.43;2.00;;;9.50;99.90;;;;;;5030751;28;20201;-65
2023/02/03 06:23:58;;;;;;;4.20;2.23;;;9.50;99.90;;;;;;5022049;28;20210;-65
2023/02/03 06:26:26;;;;;;;3.63;2.10;;;9.50;99.90;;;;;;5030993;28;20215;-65
2023/02/03 06:28:54;;;;;;;1.90;1.80;;;9.50;99.90;;;;;;5042393;28;20674;-65
2023/02/03 06:31:23;;;;;;;6.50;1.90;;;9.50;99.90;;;;;;5024612;28;20209;-65
2023/02/03 06:33:51;;;;;;;6.67;2.17;;;9.40;99.90;;;;;;5026940;28;20667;-64
2023/02/03 06:36:21;;;;;;;6.43;2.10;;;9.50;99.90;;;;;;5032003;28;20208;-65
2023/02/03 06:38:49;;;;;;;5.03;2.20;;;9.40;99.90;;;;;;5026797;28;20666;-64
2023/02/03 06:41:17;;;;;;;7.73;2.40;;;9.50;99.90;;;;;;5026357;28;20197;-64
2023/02/03 06:43:46;;;;;;;3.77;1.90;;;9.50;99.90;;;;;;5029104;28;20200;-64
2023/02/03 06:46:14;;;;;;;6.70;2.13;;;9.50;99.90;;;;;;5026361;28;20197;-65
2023/02/03 06:48:42;;;;;;;4.63;2.13;;;9.40;99.90;;;;;;5031858;28;20655;-64
2023/02/03 06:51:10;;;;;;;5.77;2.00;;;9.40;99.90;;;;;;5027003;28;20205;-65
2023/02/03 06:53:40;;;;;;;5.00;2.07;;;9.40;99.90;;;;;;5032322;28;20246;-64
2023/02/03 06:56:08;;;;;;;4.57;2.13;;;9.50;99.90;;;;;;5029536;28;20197;-65
2023/02/03 06:58:37;;;;;;;4.43;2.00;;;9.40;99.90;;;;;;5060585;28;20256;-65
2023/02/03 07:01:05;;;;;;;7.27;2.17;;;9.40;99.90;;;;;;5026400;28;20243;-65
2023/02/03 07:03:34;;;;;;;6.23;2.00;;;9.40;99.90;;;;;;5057356;28;20288;-64
2023/02/03 07:06:02;;;;;;;9.80;2.50;;;9.40;99.90;;;;;;5039817;28;20213;-64
2023/02/03 07:08:30;;;;;;;3.17;2.20;;;9.40;99.90;;;;;;5027866;28;20591;-64
2023/02/03 07:11:00;;;;;;;6.07;1.83;;;9.40;99.90;;;;;;5042422;28;20532;-64
2023/02/03 07:13:28;;;;;;;6.90;2.37;;;9.40;99.90;;;;;;5029705;28;20217;-64
2023/02/03 07:15:56;;;;;;;6.20;2.23;;;9.40;99.90;;;;;;5036450;28;20551;-64
2023/02/03 07:18:25;;;;;;;5.20;2.30;;;9.50;99.90;;;;;;5031414;28;20679;-64
2023/02/03 07:21:14;;;;;;;4.23;2.00;;;9.50;99.90;;;;;;5031138;28;20228;-64
2023/02/03 07:23:43;;;;;;;11.57;2.70;;;9.50;99.90;;;;;;5015115;28;20201;-64
2023/02/03 07:26:13;;;;;;;3.43;2.20;;;9.50;99.90;;;;;;5011633;28;20191;-64
2023/02/03 07:28:41;;;;;;;5.80;2.80;;;9.50;99.90;;;;;;5024826;28;20259;-64
2023/02/03 07:31:10;;;;;;;5.00;2.00;;;9.50;99.90;;;;;;5028714;28;20205;-64
2023/02/03 07:33:38;;;;;;;6.23;2.43;;;9.50;99.90;;;;;;5030804;28;20220;-64
2023/02/03 07:36:08;;;;;;;4.33;2.50;;;9.50;99.90;;;;;;5031239;28;20237;-64
2023/02/03 07:38:37;;;;;;;9.20;2.33;;;9.50;99.90;;;;;;5024817;28;20193;-64
2023/02/03 07:41:06;;;;;;;6.37;2.50;;;9.50;99.90;;;;;;5040179;28;20276;-64
2023/02/03 07:43:36;;;;;;;6.63;2.57;;;9.50;99.90;;;;;;5040108;28;20189;-64
2023/02/03 07:46:05;;;;;;;8.13;2.43;;;9.50;99.90;;;;;;5027500;28;20197;-64
2023/02/03 07:48:33;;;;;;;4.93;2.00;;;9.50;99.90;;;;;;5031154;28;20212;-64
2023/02/03 07:51:02;;;;;;;6.20;2.60;;;9.50;99.90;;;;;;5047306;28;20197;-64
2023/02/03 07:53:30;;;;;;;4.70;2.30;;;9.60;99.90;;;;;;5051277;28;20212;-64
2023/02/03 07:56:00;;;;;;;4.43;1.83;;;9.60;99.90;;;;;;5031716;28;20240;-64
2023/02/03 07:58:29;;;;;;;5.37;2.60;;;9.60;99.90;;;;;;5032848;28;20189;-64
2023/02/03 08:00:59;;;;;;;4.97;2.20;;;9.60;99.90;;;;;;5030081;28;20193;-64
2023/02/03 08:03:28;;;;;;;5.97;2.13;;;9.60;99.90;;;;;;5035614;28;20539;-64
2023/02/03 08:05:56;;;;;;;6.03;2.20;;;9.60;99.90;;;;;;5033205;28;20213;-64
2023/02/03 08:08:24;;;;;;;10.80;2.80;;;9.60;99.90;;;;;;5048316;28;20225;-64
2023/02/03 08:10:55;;;;;;;4.73;2.47;;;9.60;99.90;;;;;;5033448;28;20695;-64
2023/02/03 08:13:23;;;;;;;6.83;2.40;;;9.70;99.90;;;;;;5031309;28;20716;-64
2023/02/03 08:15:52;;;;;;;3.07;2.10;;;9.70;99.90;;;;;;5038255;28;20688;-64
2023/02/03 08:18:22;;;;;;;7.20;2.73;;;9.60;99.90;;;;;;5034034;28;20228;-64
2023/02/03 08:20:50;;;;;;;6.33;2.00;;;9.70;99.90;;;;;;5027507;28;20193;-64
2023/02/03 08:23:19;;;;;;;3.47;2.10;;;9.70;99.90;;;;;;5063419;28;20198;-64
2023/02/03 08:25:51;;;;;;;3.33;1.87;;;9.70;99.90;;;;;;5036476;28;20200;-64
2023/02/03 08:28:19;;;;;;;4.33;2.10;;;9.70;99.90;;;;;;5031660;28;20194;-64
2023/02/03 08:30:47;;;;;;;5.37;2.20;;;9.70;99.90;;;;;;5034901;28;20194;-64
2023/02/03 08:33:16;;;;;;;6.50;1.90;;;9.70;99.90;;;;;;5034209;28;20225;-64
2023/02/03 08:35:48;;;;;;;5.33;2.10;;;9.70;99.90;;;;;;5033825;28;20586;-64
2023/02/03 08:38:17;;;;;;;7.13;1.90;;;9.80;99.90;;;;;;5033597;28;21038;-65
2023/02/03 08:40:45;;;;;;;2.30;1.83;;;9.80;99.90;;;;;;5033307;28;20212;-64
2023/02/03 08:43:13;;;;;;;3.13;2.00;;;9.90;99.90;;;;;;5032937;28;20203;-64
2023/02/03 08:45:42;;;;;;;4.73;1.87;;;9.90;99.90;;;;;;5033351;28;20193;-64
2023/02/03 08:48:10;;;;;;;6.23;2.03;;;10.00;99.90;;;;;;5034700;28;20612;-64
2023/02/03 08:50:40;;;;;;;4.57;2.57;;;10.00;99.90;;;;;;5033277;28;20197;-65
2023/02/03 08:53:10;;;;;;;4.63;2.10;;;10.00;99.90;;;;;;5061382;28;20567;-64
2023/02/03 08:55:39;;;;;;;4.63;2.10;;;10.10;99.90;;;;;;5033830;28;20200;-64
2023/02/03 08:58:08;;;;;;;3.70;2.10;;;10.10;99.90;;;;;;5055031;28;20307;-64
2023/02/03 09:00:36;;;;;;;6.53;1.97;;;10.10;99.90;;;;;;5031979;28;20651;-64
2023/02/03 09:03:05;;;;;;;2.33;2.10;;;10.10;99.90;;;;;;5020966;28;20190;-64
2023/02/03 09:05:34;;;;;;;8.20;2.20;;;10.10;99.90;;;;;;5031800;28;20213;-64
2023/02/03 09:08:03;;;;;;;4.57;2.10;;;10.10;99.90;;;;;;5030137;28;20581;-64
2023/02/03 09:10:32;;;;;;;3.63;2.10;;;10.20;99.90;;;;;;5032953;28;20201;-64
2023/02/03 09:13:01;;;;;;;6.23;2.10;;;10.30;99.90;;;;;;5045695;28;20231;-64
2023/02/03 09:15:29;;;;;;;3.63;2.17;;;10.20;99.90;;;;;;5026937;28;20259;-64
2023/02/03 09:17:57;;;;;;;5.87;2.10;;;10.20;99.90;;;;;;5033528;28;20195;-64
2023/02/03 09:20:26;;;;;;;5.33;2.43;;;10.30;99.90;;;;;;5028555;28;20707;-64
2023/02/03 09:22:58;;;;;;;4.47;2.83;;;10.30;99.90;;;;;;5026860;28;20225;-64
2023/02/03 09:25:26;;;;;;;4.30;2.50;;;10.40;99.90;;;;;;5031259;28;20189;-64
2023/02/03 09:27:56;;;;;;;8.10;3.50;;;10.40;99.90;;;;;;5033425;28;20651;-64
2023/02/03 09:30:24;;;;;;;5.40;2.80;;;10.50;99.90;;;;;;5031483;28;20194;-64
2023/02/03 09:32:55;;;;;;;3.00;2.60;;;10.50;99.90;;;;;;5034905;28;20539;-65
2023/02/03 09:35:25;;;;;;;4.70;2.67;;;10.50;99.90;;;;;;5033125;28;20280;-65
2023/02/03 09:37:54;;;;;;;4.93;2.97;;;10.60;99.90;;;;;;5032237;28;20537;-64
2023/02/03 09:40:27;;;;;;;3.17;2.97;;;10.70;99.90;;;;;;5033548;28;20193;-65
2023/02/03 09:43:29;;;;;;;5.90;2.83;;;10.70;99.90;;;;;;5040106;28;20197;-64
2023/02/03 09:46:02;;;;;;;7.40;3.80;;;10.60;99.90;;;;;;5026362;28;20208;-64
2023/02/03 09:48:37;;;;;;;8.57;3.57;;;10.60;99.90;;;;;;5032688;28;20209;-64
2023/02/03 09:51:16;;;;;;;3.67;2.73;;;10.60;99.90;;;;;;5034426;28;20197;-65
2023/02/03 09:53:50;;;;;;;3.70;2.80;;;10.60;99.90;;;;;;5033916;28;20213;-64
2023/02/03 09:56:26;;;;;;;12.87;3.93;;;10.70;99.90;;;;;;5034392;28;20197;-64
2023/02/03 09:58:56;;;;;;;8.70;3.90;;;11.00;99.90;;;;;;5032760;28;20204;-64
2023/02/03 10:01:29;;;;;;;7.73;3.47;;;11.30;99.90;;;;;;5032301;28;20201;-65
2023/02/03 10:04:04;;;;;;;4.97;2.90;;;11.50;99.90;;;;;;5048336;28;20666;-65
2023/02/03 10:06:38;;;;;;;7.80;2.80;;;11.80;99.90;;;;;;5029807;28;20197;-64
2023/02/03 10:09:19;;;;;;;3.70;2.53;;;12.00;99.90;;;;;;5033334;28;20236;-65
2023/02/03 10:12:11;;;;;;;5.63;2.67;;;12.40;99.90;;;;;;5034691;28;20236;-64
2023/02/03 10:14:51;;;;;;;10.20;2.83;;;12.50;99.90;;;;;;5023482;28;20217;-65
2023/02/03 10:17:30;;;;;;;4.90;3.00;;;12.50;99.90;;;;;;5031688;28;20644;-64
2023/02/03 10:20:04;;;;;;;4.77;2.57;;;12.50;99.90;;;;;;5033108;28;20235;-65
2023/02/03 10:22:40;;;;;;;4.10;2.47;;;12.40;99.90;;;;;;5030427;28;20200;-64
2023/02/03 10:25:19;;;;;;;6.20;2.43;;;12.30;99.90;;;;;;5037662;28;20184;-65
2023/02/03 10:27:49;;;;;;;4.07;2.73;;;12.30;99.90;;;;;;5033714;28;20201;-64
2023/02/03 10:30:21;;;;;;;10.23;4.43;;;12.30;99.90;;;;;;5033362;28;20216;-64
2023/02/03 10:32:54;;;;;;;8.07;2.97;;;12.30;99.90;;;;;;5034727;28;20221;-66
2023/02/03 10:35:33;;;;;;;5.20;3.07;;;12.20;99.90;;;;;;5028536;28;20699;-67
2023/02/03 10:38:01;;;;;;;6.00;3.03;;;12.20;99.90;;;;;;5032508;28;20198;-65
2023/02/03 10:40:30;;;;;;;4.70;2.63;;;12.20;99.90;;;;;;5030485;28;20208;-67
2023/02/03 10:45:46;;;;;;;5.87;2.90;;;12.00;99.90;;;;;;5029956;28;20260;-64
2023/02/03 10:48:18;;;;;;;4.60;2.87;;;12.00;99.90;;;;;;5028748;28;20193;-66
2023/02/03 10:50:50;;;;;;;3.80;2.70;;;12.00;99.90;;;;;;5030993;28;20202;-65
2023/02/03 10:53:24;;;;;;;12.33;2.90;;;12.10;99.90;;;;;;5021263;28;20189;-64
2023/02/03 10:56:03;;;;;;;6.13;3.00;;;12.20;99.90;;;;;;5031033;28;20223;-67
2023/02/03 10:58:33;;;;;;;5.10;2.70;;;12.20;99.90;;;;;;5034999;28;20205;-65
2023/02/03 11:01:12;;;;;;;6.80;2.87;;;12.10;99.90;;;;;;5027907;28;20280;-65
2023/02/03 11:03:43;;;;;;;4.47;3.03;;;12.00;99.90;;;;;;5029899;28;20641;-64
2023/02/03 11:06:14;;;;;;;3.33;2.77;;;11.90;99.90;;;;;;5061146;28;20236;-65
2023/02/03 11:08:45;;;;;;;5.67;2.40;;;11.80;99.90;;;;;;5029721;28;20316;-64
2023/02/03 11:11:19;;;;;;;7.80;2.60;;;11.70;99.90;;;;;;5030193;28;20190;-64
2023/02/03 11:13:53;;;;;;;6.47;3.13;;;11.60;99.90;;;;;;5034025;28;20232;-65
2023/02/03 11:16:24;;;;;;;4.17;2.70;;;11.50;99.90;;;;;;5029921;28;20201;-64
2023/02/03 11:18:55;;;;;;;4.23;3.20;;;11.40;99.90;;;;;;5029221;28;20531;-64
2023/02/03 11:21:26;;;;;;;6.97;2.90;;;11.40;99.90;;;;;;5029059;28;20209;-64
2023/02/03 11:24:01;;;;;;;6.13;2.73;;;11.30;99.90;;;;;;5030329;28;20194;-64
2023/02/03 11:26:33;;;;;;;3.03;2.43;;;11.30;99.90;;;;;;5027832;28;20197;-64
2023/02/03 11:29:05;;;;;;;5.93;2.87;;;11.20;99.90;;;;;;5034349;28;20293;-64
2023/02/03 11:31:36;;;;;;;4.10;3.27;;;11.20;99.90;;;;;;5029970;28;20201;-65
2023/02/03 11:34:14;;;;;;;6.73;2.80;;;11.20;99.90;;;;;;5030604;28;20190;-64
2023/02/03 11:36:43;;;;;;;6.17;3.30;;;11.10;99.90;;;;;;5027894;28;20199;-64
2023/02/03 11:39:25;;;;;;;2.70;2.40;;;11.10;99.90;;;;;;5028139;28;20212;-65
2023/02/03 11:41:54;;;;;;;4.37;2.90;;;11.10;99.90;;;;;;5030549;28;20284;-65
2023/02/03 11:44:28;;;;;;;4.97;2.70;;;11.10;99.90;;;;;;5028640;28;20198;-64
2023/02/03 11:47:02;;;;;;;3.73;3.03;;;11.00;99.90;;;;;;5028030;28;20203;-64
2023/02/03 11:50:18;;;;;;;3.33;3.03;;;11.00;99.90;;;;;;5026717;28;20300;-64
2023/02/03 11:53:02;;;;;;;11.60;3.00;;;11.20;99.90;;;;;;5032966;28;20287;-64
2023/02/03 11:55:48;;;;;;;5.50;2.80;;;11.20;99.90;;;;;;5032601;28;20209;-64
2023/02/03 11:58:56;;;;;;;6.43;3.40;;;11.30;99.90;;;;;;5035780;28;20591;-64
2023/02/03 12:01:47;;;;;;;8.27;3.87;;;11.30;99.90;;;;;;5030512;28;20193;-65
2023/02/03 12:04:43;;;;;;;8.63;4.70;;;11.30;99.90;;;;;;5029101;28;20337;-65
2023/02/03 12:07:39;;;;;;;6.37;3.27;;;11.30;99.90;;;;;;5064348;28;20212;-65
2023/02/03 12:10:28;;;;;;;6.87;3.30;;;11.30;99.90;;;;;;5029068;28;20206;-65
2023/02/03 12:13:07;;;;;;;6.77;3.43;;;11.30;99.90;;;;;;5030700;28;20200;-65
2023/02/03 12:15:51;;;;;;;8.07;3.03;;;11.30;99.90;;;;;;5030191;28;20671;-65
2023/02/03 12:18:35;;;;;;;9.53;3.73;;;11.30;99.90;;;;;;5028387;28;20251;-65
2023/02/03 12:21:20;;;;;;;5.90;3.07;;;11.40;99.90;;;;;;5026667;28;20190;-65
2023/02/03 12:24:00;;;;;;;3.83;2.83;;;11.50;99.90;;;;;;5028929;28;20194;-65
2023/02/03 12:26:36;;;;;;;5.13;3.10;;;11.70;99.90;;;;;;5029947;28;20191;-65
2023/02/03 12:29:09;;;;;;;7.27;2.73;;;11.90;99.90;;;;;;5030297;28;20190;-65
2023/02/03 12:31:42;;;;;;;5.90;3.47;;;11.90;99.90;;;;;;5029537;28;20229;-65
2023/02/03 12:34:19;;;;;;;6.97;3.53;;;11.90;99.90;;;;;;5029499;28;20197;-65
2023/02/03 12:36:55;;;;;;;6.93;3.30;;;11.80;99.90;;;;;;5030371;28;20573;-65
2023/02/03 12:39:29;;;;;;;4.93;3.03;;;11.80;99.90;;;;;;5046865;28;20677;-65
2023/02/03 12:42:02;;;;;;;6.10;4.00;;;11.70;99.90;;;;;;5034713;28;20208;-65
2023/02/03 12:44:35;;;;;;;10.80;3.77;;;11.60;99.90;;;;;;5033967;28;20210;-65
2023/02/03 12:47:07;;;;;;;6.00;3.17;;;11.70;99.90;;;;;;5034496;28;20202;-65
2023/02/03 12:49:42;;;;;;;9.70;3.30;;;11.60;99.90;;;;;;5033862;28;20197;-65
2023/02/03 12:52:21;;;;;;;8.80;3.80;;;11.60;99.90;;;;;;5034336;28;20205;-65
2023/02/03 12:54:56;;;;;;;10.00;3.70;;;11.70;99.90;;;;;;5031187;28;20212;-65
2023/02/03 12:57:30;;;;;;;5.90;2.97;;;11.70;99.90;;;;;;5036660;28;20185;-65
2023/02/03 13:00:07;;;;;;;7.23;3.30;;;11.70;99.90;;;;;;5036338;28;20197;-65
2023/02/03 13:02:44;;;;;;;4.77;3.70;;;11.70;99.90;;;;;;5033658;28;20225;-65
2023/02/03 13:05:22;;;;;;;5.80;3.90;;;11.70;99.90;;;;;;5033538;28;20213;-65
2023/02/03 13:08:01;;;;;;;7.03;3.60;;;11.70;99.90;;;;;;5033476;28;20251;-65
2023/02/03 13:10:34;;;;;;;4.43;3.20;;;11.70;99.90;;;;;;5033340;28;20204;-65
2023/02/03 13:13:08;;;;;;;6.87;3.30;;;11.70;99.90;;;;;;5024850;28;20208;-65
2023/02/03 13:15:39;;;;;;;6.17;3.93;;;11.70;99.90;;;;;;5031394;28;20206;-65
2023/02/03 13:18:19;;;;;;;7.30;3.63;;;11.80;99.90;;;;;;5030942;28;20196;-65
2023/02/03 13:20:47;;;;;;;3.83;2.90;;;11.80;99.90;;;;;;5028979;28;20200;-65
2023/02/03 13:23:17;;;;;;;4.23;2.90;;;11.90;99.90;;;;;;5032746;28;20213;-65